Time;durP1;ratioP1;P1;durP2;ratioP2;P2;SDS_P1;SDS_P2;PMS_P1;PMS_P2;Temp;Humidity;BMP_temperature;BMP_pressure;BME280_temperature;BME280_humidity;BME280_pressure;Samples;Min_cycle;Max_cycle;Signal;HPM_P1;HPM_P2
2023/11/19 00:00:33;;;;;;;0.97;0.50;;;;;;;;;;6235742;22;20428;-86
2023/11/19 00:03:25;;;;;;;0.67;0.50;;;;;;;;;;6231872;22;20448;-86
2023/11/19 00:06:16;;;;;;;2.93;0.77;;;;;;;;;;6193825;23;20397;-86
2023/11/19 00:09:10;;;;;;;0.67;0.60;;;;;;;;;;6157806;23;20427;-86
2023/11/19 00:12:00;;;;;;;1.57;1.10;;;;;;;;;;6170786;23;21087;-85
2023/11/19 00:14:39;;;;;;;0.73;0.60;;;;;;;;;;6163070;23;20465;-85
2023/11/19 00:17:27;;;;;;;0.60;0.60;;;;;;;;;;6165417;23;20502;-87
2023/11/19 00:20:22;;;;;;;1.37;0.60;;;;;;;;;;6152751;23;21116;-86
2023/11/19 00:23:01;;;;;;;0.83;0.70;;;;;;;;;;6135532;23;20415;-85
2023/11/19 00:25:53;;;;;;;1.63;0.77;;;;;;;;;;6158939;23;20407;-84
2023/11/19 00:28:37;;;;;;;0.63;0.57;;;;;;;;;;6160526;23;20426;-86
2023/11/19 00:31:13;;;;;;;0.63;0.57;;;;;;;;;;6167315;23;20426;-87
2023/11/19 00:33:59;;;;;;;0.40;0.40;;;;;;;;;;6185906;22;20479;-88
2023/11/19 00:36:41;;;;;;;0.50;0.50;;;;;;;;;;6235595;23;20484;-87
2023/11/19 00:39:29;;;;;;;0.60;0.60;;;;;;;;;;6211923;23;20432;-88
2023/11/19 00:42:12;;;;;;;2.47;1.10;;;;;;;;;;6222552;23;20421;-87
2023/11/19 00:44:58;;;;;;;0.70;0.60;;;;;;;;;;6222826;23;20449;-88
2023/11/19 00:47:49;;;;;;;0.70;0.70;;;;;;;;;;6224838;23;20421;-88
2023/11/19 00:50:33;;;;;;;2.40;0.70;;;;;;;;;;6226878;23;20423;-86
2023/11/19 00:53:23;;;;;;;0.67;0.67;;;;;;;;;;6222266;23;20415;-87
2023/11/19 00:56:44;;;;;;;;;;;;;;;;;;;;;
2023/11/19 00:59:13;;;;;;;1.17;0.53;;;;;;;;;;6216258;23;20432;-85
2023/11/19 01:01:54;;;;;;;0.80;0.80;;;;;;;;;;6232896;23;20471;-86
2023/11/19 01:04:45;;;;;;;0.80;0.80;;;;;;;;;;6218845;23;20464;-86
2023/11/19 01:07:34;;;;;;;1.23;0.50;;;;;;;;;;6219393;23;20429;-88
2023/11/19 01:10:40;;;;;;;0.60;0.60;;;;;;;;;;6227782;23;20388;-88
2023/11/19 01:13:14;;;;;;;0.73;0.53;;;;;;;;;;6230359;23;20458;-84
2023/11/19 01:16:04;;;;;;;1.67;1.07;;;;;;;;;;6228626;23;20489;-87
2023/11/19 01:18:53;;;;;;;0.90;0.70;;;;;;;;;;6223195;23;20397;-86
2023/11/19 01:30:56;;;;;;;1.00;0.90;;;;;;;;;;6215197;23;20448;-85
2023/11/19 01:33:51;;;;;;;0.57;0.57;;;;;;;;;;6217390;23;20405;-86
2023/11/19 01:36:37;;;;;;;2.93;0.90;;;;;;;;;;6214290;23;20406;-85
2023/11/19 01:39:24;;;;;;;0.63;0.63;;;;;;;;;;6215557;23;20430;-86
2023/11/19 01:42:25;;;;;;;1.00;0.83;;;;;;;;;;6216205;23;20407;-87
2023/11/19 01:45:30;;;;;;;1.23;0.80;;;;;;;;;;6218217;23;20446;-89
2023/11/19 01:48:19;;;;;;;0.67;0.67;;;;;;;;;;6073475;23;20429;-88
2023/11/19 01:51:32;;;;;;;0.77;0.77;;;;;;;;;;6082189;23;20413;-88
2023/11/19 01:54:22;;;;;;;1.23;0.60;;;;;;;;;;6199370;23;20421;-89
2023/11/19 01:57:16;;;;;;;0.80;0.80;;;;;;;;;;6214561;23;20456;-87
2023/11/19 01:59:52;;;;;;;0.93;0.70;;;;;;;;;;6222292;22;20420;-84
2023/11/19 02:02:39;;;;;;;1.90;1.00;;;;;;;;;;6216752;23;20472;-88
2023/11/19 02:05:35;;;;;;;1.73;1.00;;;;;;;;;;6218842;23;20455;-87
2023/11/19 02:08:38;;;;;;;3.10;0.97;;;;;;;;;;6213281;23;20436;-86
2023/11/19 02:11:44;;;;;;;2.10;1.00;;;;;;;;;;6220354;23;20361;-87
2023/11/19 02:14:52;;;;;;;;;;;;;;;;;;;;;
2023/11/19 02:18:09;;;;;;;1.47;1.10;;;;;;;;;;6210385;23;20437;-85
2023/11/19 02:21:42;;;;;;;7.47;1.20;;;;;;;;;;6198324;23;20413;-87
2023/11/19 02:24:25;;;;;;;1.90;0.87;;;;;;;;;;6206830;23;20496;-85
2023/11/19 02:27:33;;;;;;;1.13;0.90;;;;;;;;;;6225737;23;20424;-88
2023/11/19 02:30:15;;;;;;;3.57;2.20;;;13.30;99.90;;;;;;6225908;23;20464;-88
2023/11/19 02:32:57;;;;;;;3.77;1.67;;;;;;;;;;6218152;23;20405;-86
2023/11/19 02:35:56;;;;;;;1.97;1.10;;;;;;;;;;6217338;23;20500;-88
2023/11/19 02:38:43;;;;;;;1.80;1.03;;;;;;;;;;6208959;23;20459;-86
2023/11/19 02:44:35;;;;;;;2.67;1.00;;;;;;;;;;6216955;23;20451;-87
2023/11/19 02:50:48;;;;;;;1.90;1.20;;;;;;;;;;6093093;23;20408;-88
2023/11/19 02:53:37;;;;;;;2.50;1.00;;;;;;;;;;6079036;23;20404;-85
2023/11/19 02:56:37;;;;;;;4.47;1.40;;;;;;;;;;6095735;23;20544;-86
2023/11/19 02:59:38;;;;;;;2.33;1.23;;;;;;;;;;6035933;23;20500;-87
2023/11/19 03:02:26;;;;;;;2.23;1.17;;;;;;;;;;6086069;23;20492;-88
2023/11/19 03:05:30;;;;;;;4.60;1.20;;;;;;;;;;6012196;23;20454;-89
2023/11/19 03:08:45;;;;;;;2.90;1.50;;;;;;;;;;6084463;23;20431;-86
2023/11/19 03:11:44;;;;;;;3.63;1.20;;;;;;;;;;6078465;23;20440;-87
2023/11/19 03:18:38;;;;;;;4.43;1.30;;;;;;;;;;6162981;23;20439;-88
2023/11/19 03:21:27;;;;;;;2.90;1.00;;;;;;;;;;6140099;23;20931;-85
2023/11/19 03:24:29;;;;;;;;;;;;;;;;;;;;;
2023/11/19 03:27:14;;;;;;;3.00;1.30;;;;;;;;;;6143743;23;20446;-86
2023/11/19 03:30:17;;;;;;;2.40;1.30;;;;;;;;;;6161903;23;20473;-87
2023/11/19 03:33:01;;;;;;;1.93;1.03;;;;;;;;;;6141990;23;20414;-85
2023/11/19 03:36:10;;;;;;;5.10;1.13;;;;;;;;;;5997872;23;20419;-88
2023/11/19 03:38:57;;;;;;;1.87;1.63;;;;;;;;;;5996292;23;20425;-87
2023/11/19 03:42:09;;;;;;;6.80;1.67;;;;;;;;;;5993465;23;20451;-86
2023/11/19 03:45:09;;;;;;;;;;;;;;;;;;;;;
2023/11/19 03:47:55;;;;;;;4.17;1.27;;;;;;;;;;6007859;23;20435;-86
2023/11/19 03:50:35;;;;;;;5.77;1.33;;;;;;;;;;6069436;23;20700;-87
2023/11/19 03:53:33;;;;;;;3.93;1.50;;;;;;;;;;6091633;23;20452;-86
2023/11/19 03:56:21;;;;;;;4.90;1.60;;;;;;;;;;6068559;23;20421;-86
2023/11/19 04:02:29;;;;;;;4.00;1.90;;;;;;;;;;6097641;23;20404;-86
2023/11/19 04:05:03;;;;;;;3.20;1.23;;;;;;;;;;6080705;23;20846;-86
2023/11/19 04:07:38;;;;;;;2.67;1.60;;;;;;;;;;6083017;23;20515;-85
2023/11/19 04:10:27;;;;;;;3.30;1.30;;;;;;;;;;6019591;23;20407;-88
2023/11/19 04:13:22;;;;;;;4.40;1.77;;;;;;;;;;6112740;23;20417;-88
2023/11/19 04:16:07;;;;;;;4.00;1.33;;;;;;;;;;6229719;23;20829;-86
2023/11/19 04:19:04;;;;;;;3.57;1.63;;;;;;;;;;6230443;23;20420;-86
2023/11/19 04:21:52;;;;;;;3.30;1.10;;;;;;;;;;6226278;23;20405;-84
2023/11/19 04:24:35;;;;;;;3.50;1.70;;;;;;;;;;6224882;23;20519;-88
2023/11/19 04:27:22;;;;;;;4.10;1.40;;;;;;;;;;6223201;23;20413;-87
2023/11/19 04:30:10;;;;;;;5.10;1.57;;;;;;;;;;6221004;23;20416;-86
2023/11/19 04:35:51;;;;;;;5.10;1.50;;;;;;;;;;6214781;23;20404;-84
2023/11/19 04:41:37;;;;;;;4.17;1.77;;;;;;;;;;6216877;23;20473;-86
2023/11/19 04:44:45;;;;;;;4.60;1.90;;;;;;;;;;6216223;23;20559;-87
2023/11/19 04:51:19;;;;;;;7.07;2.33;;;;;;;;;;6204352;23;20417;-87
2023/11/19 04:54:12;;;;;;;5.60;1.70;;;;;;;;;;6200283;23;20397;-86
2023/11/19 04:57:16;;;;;;;10.20;2.37;;;;;;;;;;6221683;23;20425;-88
2023/11/19 05:00:08;;;;;;;6.67;1.93;;;;;;;;;;6227053;23;20413;-87
2023/11/19 05:03:06;;;;;;;;;;;;;;;;;;;;;
2023/11/19 05:06:05;;;;;;;5.07;1.93;;;;;;;;;;6225085;23;20468;-86
2023/11/19 05:09:07;;;;;;;4.90;1.93;;;;;;;;;;6228924;23;20393;-90
2023/11/19 05:11:49;;;;;;;9.63;2.13;;;;;;;;;;6218043;23;20472;-83
2023/11/19 05:18:06;;;;;;;7.60;2.10;;;;;;;;;;6222085;23;20428;-88
2023/11/19 05:21:05;;;;;;;7.23;2.13;;;;;;;;;;6174368;23;20394;-89
2023/11/19 05:24:19;;;;;;;4.23;2.20;;;;;;;;;;6162850;23;20521;-89
2023/11/19 05:33:08;;;;;;;7.50;2.50;;;;;;;;;;6219760;23;20451;-87
2023/11/19 05:35:49;;;;;;;6.17;1.97;;;;;;;;;;6232974;23;20549;-88
2023/11/19 05:38:31;;;;;;;7.50;1.80;;;;;;;;;;6222236;23;20436;-85
2023/11/19 05:41:08;;;;;;;10.70;2.37;;;;;;;;;;6219765;23;20487;-86
2023/11/19 05:44:03;;;;;;;8.47;2.83;;;;;;;;;;6163387;23;20471;-87
2023/11/19 05:46:42;;;;;;;6.83;1.73;;;;;;;;;;6158189;23;20444;-87
2023/11/19 05:49:38;;;;;;;8.60;1.83;;;;;;;;;;6161323;23;20422;-87
2023/11/19 05:52:21;;;;;;;5.20;1.70;;;;;;;;;;6162572;23;20445;-85
2023/11/19 05:55:09;;;;;;;5.80;1.83;;;;;;;;;;6164355;23;20504;-86
2023/11/19 05:57:51;;;;;;;7.73;2.07;;;;;;;;;;6159998;23;20553;-83
2023/11/19 06:00:44;;;;;;;6.20;2.10;;;;;;;;;;6161160;23;20488;-86
2023/11/19 06:04:11;;;;;;;13.57;2.00;;;;;;;;;;6160906;23;20389;-84
2023/11/19 06:06:59;;;;;;;8.13;2.30;;;;;;;;;;6156832;23;20434;-88
2023/11/19 06:09:51;;;;;;;5.43;2.30;;;;;;;;;;6128497;23;20383;-87
2023/11/19 06:12:38;;;;;;;8.93;2.27;;;;;;;;;;6125060;23;20405;-85
2023/11/19 06:15:13;;;;;;;6.60;2.23;;;;;;;;;;6199840;23;20420;-86
2023/11/19 06:18:01;;;;;;;4.50;2.40;;;;;;;;;;6206900;23;20417;-84
2023/11/19 06:20:44;;;;;;;8.23;2.33;;;;;;;;;;6210757;23;20428;-87
2023/11/19 06:23:20;;;;;;;7.20;2.40;;;;;;;;;;6210730;23;20416;-87
2023/11/19 06:26:14;;;;;;;8.03;3.20;;;;;;;;;;6206835;23;20444;-87
2023/11/19 06:29:05;;;;;;;5.93;1.93;;;;;;;;;;6201694;23;20401;-86
2023/11/19 06:31:42;;;;;;;6.47;2.03;;;;;;;;;;6210726;23;20401;-86
2023/11/19 06:34:37;;;;;;;10.60;2.43;;;;;;;;;;6210136;23;20434;-86
2023/11/19 06:37:10;;;;;;;9.10;2.80;;;;;;;;;;6208498;23;20506;-87
2023/11/19 06:39:46;;;;;;;12.70;2.50;;;;;;;;;;6210004;23;20424;-87
2023/11/19 06:42:23;;;;;;;7.03;2.10;;;;;;;;;;6209349;23;20818;-85
2023/11/19 06:45:11;;;;;;;5.10;2.73;;;;;;;;;;6211061;23;20479;-86
2023/11/19 06:48:03;;;;;;;11.77;3.23;;;;;;;;;;6210651;23;20445;-85
2023/11/19 06:50:52;;;;;;;7.17;2.47;;;;;;;;;;6209767;23;20460;-86
2023/11/19 06:53:44;;;;;;;6.77;2.43;;;;;;;;;;6210334;23;20419;-87
2023/11/19 06:56:32;;;;;;;8.40;2.43;;;;;;;;;;6209981;23;20444;-84
2023/11/19 06:59:21;;;;;;;18.57;3.77;;;;;;;;;;6210522;23;20386;-86
2023/11/19 07:02:01;;;;;;;11.00;4.30;;;;;;;;;;6210680;23;20890;-87
2023/11/19 07:04:50;;;;;;;10.30;2.20;;;;;;;;;;6208742;23;20533;-88
2023/11/19 07:07:46;;;;;;;8.37;3.33;;;;;;;;;;6209172;23;20524;-85
2023/11/19 07:10:26;;;;;;;7.30;1.90;;;;;;;;;;6209133;23;20480;-85
2023/11/19 07:13:32;;;;;;;10.50;2.33;;;;;;;;;;6200512;23;20404;-86
2023/11/19 07:16:12;;;;;;;8.13;2.90;;;;;;;;;;6211270;23;20405;-86
2023/11/19 07:19:05;;;;;;;17.17;2.90;;;;;;;;;;6193156;23;20389;-85
2023/11/19 07:22:06;;;;;;;9.80;3.00;;;;;;;;;;6210984;23;21032;-87
2023/11/19 07:25:05;;;;;;;9.97;2.30;;;;;;;;;;6152323;23;20563;-88
2023/11/19 07:28:05;;;;;;;15.23;3.23;;;;;;;;;;6212568;23;20417;-89
2023/11/19 07:31:35;;;;;;;12.70;2.67;;;;;;;;;;6231133;23;20483;-87
2023/11/19 07:34:06;;;;;;;10.43;2.40;;;;;;;;;;6227789;23;20412;-87
2023/11/19 07:36:57;;;;;;;10.33;2.10;;;;;;;;;;6106776;23;20431;-84
2023/11/19 07:39:40;;;;;;;12.37;3.60;;;;;;;;;;6125166;23;20474;-85
2023/11/19 07:42:32;;;;;;;14.57;2.67;;;;;;;;;;6119809;23;20400;-87
2023/11/19 07:45:08;;;;;;;9.37;2.73;;;;;;;;;;6120656;23;20435;-85
2023/11/19 07:47:56;;;;;;;9.40;2.63;;;;;;;;;;6124161;23;20444;-85
2023/11/19 07:50:52;;;;;;;9.17;3.07;;;;;;;;;;6122801;23;20898;-87
2023/11/19 07:53:39;;;;;;;8.00;3.13;;;;;;;;;;6124231;23;20438;-86
2023/11/19 07:56:32;;;;;;;7.50;2.90;;;;;;;;;;6123109;23;20380;-86
2023/11/19 07:59:24;;;;;;;9.17;2.60;;;;;;;;;;6138255;23;20412;-85
2023/11/19 08:02:28;;;;;;;15.87;2.80;;;;;;;;;;6230262;23;20424;-87
2023/11/19 08:05:31;;;;;;;;;;;;;;;;;;;;;
2023/11/19 08:08:35;;;;;;;13.23;3.03;;;;;;;;;;6171778;23;20935;-86
2023/11/19 08:11:19;;;;;;;12.17;2.83;;;;;;;;;;6212599;23;20444;-87
2023/11/19 08:14:15;;;;;;;6.23;2.87;;;;;;;;;;6209472;23;20391;-86
2023/11/19 08:17:09;;;;;;;16.23;3.70;;;;;;;;;;6200831;23;20452;-86
2023/11/19 08:19:47;;;;;;;10.07;2.87;;;;;;;;;;6213209;23;20417;-86
2023/11/19 08:22:48;;;;;;;14.13;3.03;;;;;;;;;;6208990;23;20495;-86
2023/11/19 08:25:42;;;;;;;9.63;2.20;;;;;;;;;;6121095;23;20483;-86
2023/11/19 08:31:31;;;;;;;14.07;2.47;;;;;;;;;;6094150;23;20440;-85
2023/11/19 08:37:38;;;;;;;12.13;2.93;;;;;;;;;;5971151;23;20443;-86
2023/11/19 08:40:37;;;;;;;;;;;;;;;;;;;;;
2023/11/19 08:43:52;;;;;;;;;;;;;;;;;;;;;
2023/11/19 08:50:00;;;;;;;6.90;2.97;;;;;;;;;;6140923;23;20408;-87
2023/11/19 09:02:44;;;;;;;;;;;;;;;;;;;;;
2023/11/19 09:18:13;;;;;;;12.00;2.43;;;;;;;;;;6213913;23;20460;-88
2023/11/19 09:21:02;;;;;;;11.03;2.37;;;;;;;;;;6227192;23;20401;-87
2023/11/19 09:23:49;;;;;;;9.73;2.30;;;;;;;;;;6229211;23;20480;-88
2023/11/19 09:26:31;;;;;;;12.47;3.27;;;;;;;;;;6230529;23;20516;-88
2023/11/19 09:29:39;;;;;;;15.13;2.47;;;;;;;;;;6232467;23;20413;-85
2023/11/19 09:32:43;;;;;;;6.87;1.90;;;;;;;;;;6112872;23;20408;-86
2023/11/19 09:36:16;;;;;;;7.27;3.00;;;;;;;;;;6207528;23;20486;-85
2023/11/19 09:39:09;;;;;;;14.87;3.17;;;;;;;;;;5989425;24;20434;-85
2023/11/19 09:41:45;;;;;;;6.80;2.30;;;;;;;;;;5961345;24;20523;-88
2023/11/19 09:44:37;;;;;;;9.53;3.63;;;;;;;;;;5982132;23;20544;-87
2023/11/19 09:47:30;;;;;;;10.83;2.90;;;;;;;;;;6008594;23;21396;-84
2023/11/19 09:50:32;;;;;;;8.60;2.50;;;;;;;;;;6009761;23;20428;-87
2023/11/19 09:56:39;;;;;;;11.97;3.07;;;;;;;;;;6007742;23;20415;-85
2023/11/19 09:59:37;;;;;;;8.40;2.30;;;;;;;;;;5989896;23;20533;-86
2023/11/19 10:02:37;;;;;;;12.83;2.73;;;;;;;;;;5923229;24;20461;-85
2023/11/19 10:05:21;;;;;;;8.80;2.70;;;;;;;;;;5929909;24;20456;-84
2023/11/19 10:13:33;;;;;;;9.27;2.60;;;;;;;;;;6246013;22;20439;-87
2023/11/19 10:19:44;;;;;;;10.40;3.00;;;;;;;;;;6096189;23;20420;-88
2023/11/19 10:22:42;;;;;;;11.77;2.80;;;;;;;;;;6102285;23;20392;-87
2023/11/19 10:26:09;;;;;;;11.10;2.40;;;;;;;;;;6200064;23;20440;-85
2023/11/19 10:28:58;;;;;;;10.03;3.33;;;;;;;;;;6219585;23;20429;-87
2023/11/19 10:32:02;;;;;;;14.80;5.23;;;;;;;;;;6220510;23;20421;-87
2023/11/19 10:35:14;;;;;;;8.87;3.20;;;;;;;;;;6225145;23;20405;-87
2023/11/19 10:38:08;;;;;;;9.23;3.40;;;;;;;;;;6232306;23;21080;-87
2023/11/19 10:41:40;;;;;;;12.97;2.40;;;;;;;;;;6196589;23;20452;-87
2023/11/19 10:44:33;;;;;;;7.53;2.47;;;;;;;;;;6185994;23;20428;-87
2023/11/19 10:47:36;;;;;;;;;;;;;;;;;;;;;
2023/11/19 10:50:23;;;;;;;;;;;;;;;;;;;;;
2023/11/19 10:53:02;;;;;;;10.33;2.50;;;;;;;;;;6234333;23;20392;-87
2023/11/19 10:55:43;;;;;;;10.07;2.80;;;;;;;;;;6233523;23;20399;-87
2023/11/19 10:58:16;;;;;;;11.87;2.80;;;;;;;;;;6228920;23;20440;-86
2023/11/19 11:00:51;;;;;;;9.30;3.80;;;;;;;;;;6224142;23;20900;-88
2023/11/19 11:03:39;;;;;;;14.10;2.60;;;;;;;;;;6224992;23;20412;-85
2023/11/19 11:06:38;;;;;;;;;;;;;;;;;;;;;
2023/11/19 11:09:47;;;;;;;10.30;3.03;;;;;;;;;;6211625;23;20409;-85
2023/11/19 11:12:45;;;;;;;;;;;;;;;;;;;;;
2023/11/19 11:19:00;;;;;;;7.80;2.03;;;;;;;;;;6162460;23;20404;-87
2023/11/19 11:21:46;;;;;;;5.23;2.00;;;;;;;;;;6217906;23;20707;-86
2023/11/19 11:27:51;;;;;;;9.97;2.87;;;;;;;;;;6218185;22;20732;-91
2023/11/19 11:30:52;;;;;;;;;;;;;;;;;;;;;
2023/11/19 11:37:38;;;;;;;8.20;2.27;;;;;;;;;;6222891;23;20419;-86
2023/11/19 11:44:15;;;;;;;8.90;2.60;;;;;;;;;;6231886;23;20488;-88
2023/11/19 11:47:02;;;;;;;8.53;2.43;;;;;;;;;;6236589;22;20468;-87
2023/11/19 11:53:38;;;;;;;8.03;2.10;;;;;;;;;;6071851;23;20433;-86
2023/11/19 11:57:00;;;;;;;6.57;2.40;;;;;;;;;;6077245;23;20421;-87
2023/11/19 12:02:43;;;;;;;7.70;2.07;;;;;;;;;;6238719;23;20421;-87
2023/11/19 12:06:03;;;;;;;6.73;1.70;;;;;;;;;;6250893;22;20483;-86
2023/11/19 12:08:55;;;;;;;3.77;1.47;;;;;;;;;;6252990;22;20484;-85
2023/11/19 12:11:32;;;;;;;9.23;1.90;;;;;;;;;;6219695;23;20420;-86
2023/11/19 12:14:55;;;;;;;7.87;2.23;;;;;;;;;;6221217;23;20377;-85
2023/11/19 12:17:39;;;;;;;7.23;2.20;;;;;;;;;;6221841;23;20448;-87
2023/11/19 12:20:54;;;;;;;8.13;3.50;;;;;;;;;;6203909;23;20401;-87
2023/11/19 12:26:59;;;;;;;5.93;1.77;;;;;;;;;;6221194;23;20464;-88
2023/11/19 12:29:56;;;;;;;6.07;2.23;;;;;;;;;;6213855;23;20393;-86
2023/11/19 12:32:49;;;;;;;9.27;2.50;;;;;;;;;;6237350;23;20401;-88
2023/11/19 12:35:50;;;;;;;4.40;1.70;;;;;;;;;;6229131;23;20373;-87
2023/11/19 12:38:49;;;;;;;9.07;3.30;;;;;;;;;;6226048;23;20425;-88
2023/11/19 12:41:54;;;;;;;7.47;2.30;;;;;;;;;;6236459;23;20484;-87
2023/11/19 12:44:47;;;;;;;7.30;2.53;;;;;;;;;;6234179;23;20413;-86
2023/11/19 12:50:44;;;;;;;7.23;2.00;;;;;;;;;;6258146;22;20424;-86
2023/11/19 12:53:48;;;;;;;6.13;1.80;;;;;;;;;;6251839;22;20485;-86
2023/11/19 12:56:33;;;;;;;7.87;1.90;;;;;;;;;;6268896;22;20412;-86
2023/11/19 12:59:27;;;;;;;5.27;2.10;;;;;;;;;;6183884;23;20413;-86
2023/11/19 13:02:36;;;;;;;5.27;1.87;;;;;;;;;;6219862;23;20435;-86
2023/11/19 13:05:48;;;;;;;10.93;3.10;;;;;;;;;;6219031;23;20436;-86
2023/11/19 13:08:35;;;;;;;5.53;2.80;;;;;;;;;;6134178;23;20434;-85
2023/11/19 13:11:55;;;;;;;7.03;1.83;;;;;;;;;;6157038;23;20438;-85
2023/11/19 13:14:53;;;;;;;8.83;2.77;;;;;;;;;;6158457;23;20718;-86
2023/11/19 13:17:35;;;;;;;7.47;5.13;;;;;;;;;;6177420;23;20457;-87
2023/11/19 13:20:31;;;;;;;8.13;2.00;;;;;;;;;;6218287;23;20400;-85
2023/11/19 13:23:25;;;;;;;12.90;2.40;;;;;;;;;;6215709;23;20412;-85
2023/11/19 13:26:08;;;;;;;6.43;2.00;;;;;;;;;;6222964;23;20468;-89
2023/11/19 13:28:48;;;;;;;8.47;3.87;;;;;;;;;;6222943;23;20456;-86
2023/11/19 13:31:22;;;;;;;7.83;2.03;;;;;;;;;;6223025;23;20435;-85
2023/11/19 13:34:08;;;;;;;5.40;1.97;;;;;;;;;;6228771;23;20405;-87
2023/11/19 13:36:50;;;;;;;4.70;1.87;;;;;;;;;;6235839;23;20414;-87
2023/11/19 13:39:50;;;;;;;8.03;2.03;;;;;;;;;;6225350;23;20416;-86
2023/11/19 13:42:29;;;;;;;6.30;2.10;;;;;;;;;;6218012;23;20471;-87
2023/11/19 13:45:16;;;;;;;9.30;2.80;;;;;;;;;;6222573;23;20409;-88
2023/11/19 13:48:00;;;;;;;9.37;2.97;;;;;;;;;;6231233;23;20420;-88
2023/11/19 13:50:42;;;;;;;7.37;2.53;;;;;;;;;;6231801;23;20404;-87
2023/11/19 13:53:25;;;;;;;6.73;2.30;;;;;;;;;;6223951;23;20420;-87
2023/11/19 13:56:00;;;;;;;9.80;2.30;;;;;;;;;;6220873;23;20411;-86
2023/11/19 13:58:38;;;;;;;7.73;2.37;;;;;;;;;;6217699;23;20433;-87
2023/11/19 14:01:12;;;;;;;7.70;2.20;;;;;;;;;;6217971;23;20420;-85
2023/11/19 14:04:00;;;;;;;7.57;2.20;;;;;;;;;;6221755;23;21207;-86
2023/11/19 14:06:38;;;;;;;7.53;2.57;;;;;;;;;;6220110;23;20467;-86
2023/11/19 14:09:34;;;;;;;6.70;1.83;;;;;;;;;;6220598;23;20412;-86
2023/11/19 14:12:17;;;;;;;7.60;2.23;;;;;;;;;;6226765;23;20404;-86
2023/11/19 14:15:09;;;;;;;5.73;2.10;;;;;;;;;;6235158;23;20415;-88
2023/11/19 14:17:50;;;;;;;10.80;2.90;;;;;;;;;;6233276;23;20432;-87
2023/11/19 14:20:42;;;;;;;5.17;2.10;;;;;;;;;;6223453;23;20424;-88
2023/11/19 14:23:55;;;;;;;7.43;2.77;;;;;;;;;;6217284;23;20401;-85
2023/11/19 14:26:38;;;;;;;11.33;2.67;;;;;;;;;;6152256;23;20458;-86
2023/11/19 14:29:36;;;;;;;5.70;1.70;;;;;;;;;;6220281;23;20413;-87
2023/11/19 14:32:15;;;;;;;3.50;1.67;;;;;;;;;;6217240;23;20417;-86
2023/11/19 14:34:47;;;;;;;7.73;2.17;;;;;;;;;;6221387;23;20475;-86
2023/11/19 14:37:19;;;;;;;6.90;1.97;;;;;;;;;;6221774;23;20616;-87
2023/11/19 14:40:04;;;;;;;6.70;2.60;;;;;;;;;;6197540;23;20416;-85
2023/11/19 14:42:51;;;;;;;5.33;2.00;;;;;;;;;;6218636;23;20397;-86
2023/11/19 14:45:24;;;;;;;11.20;1.73;;;;;;;;;;6219853;23;20860;-85
2023/11/19 14:48:01;;;;;;;6.67;1.87;;;;;;;;;;6225823;23;20528;-85
2023/11/19 14:50:43;;;;;;;5.73;1.80;;;;;;;;;;6229431;23;20412;-86
2023/11/19 14:53:38;;;;;;;;;;;;;;;;;;;;;
2023/11/19 14:56:17;;;;;;;7.40;1.83;;;;;;;;;;6225900;23;20409;-87
2023/11/19 14:59:09;;;;;;;6.93;2.80;;;;;;;;;;6222980;23;20408;-86
2023/11/19 15:02:10;;;;;;;12.07;2.33;;;;;;;;;;6219861;23;20394;-86
2023/11/19 15:04:43;;;;;;;5.53;1.50;;;;;;;;;;6217011;23;20397;-85
2023/11/19 15:07:24;;;;;;;8.00;2.10;;;;;;;;;;6223740;23;20455;-86
2023/11/19 15:10:12;;;;;;;9.60;2.40;;;;;;;;;;6218673;23;20401;-86
2023/11/19 15:12:47;;;;;;;7.77;3.00;;;;;;;;;;6220750;23;20396;-86
2023/11/19 15:15:16;;;;;;;7.07;2.30;;;;;;;;;;6221771;23;20412;-86
2023/11/19 15:18:04;;;;;;;6.77;2.47;;;;;;;;;;6220386;23;20429;-86
2023/11/19 15:20:53;;;;;;;11.53;2.30;;;;;;;;;;6217769;23;20422;-88
2023/11/19 15:23:34;;;;;;;10.33;2.43;;;;;;;;;;6221873;23;20513;-88
2023/11/19 15:26:10;;;;;;;7.80;1.97;;;;;;;;;;6220718;23;20433;-86
2023/11/19 15:28:44;;;;;;;10.40;3.07;;;;;;;;;;6219816;23;20490;-86
2023/11/19 15:31:18;;;;;;;10.87;3.77;;;;;;;;;;6219874;23;20504;-88
2023/11/19 15:34:09;;;;;;;7.17;2.40;;;;;;;;;;6219414;23;20427;-87
2023/11/19 15:36:48;;;;;;;9.63;2.50;;;;;;;;;;6221362;23;20421;-86
2023/11/19 15:39:29;;;;;;;5.20;2.50;;;;;;;;;;6222049;23;20899;-86
2023/11/19 15:42:05;;;;;;;7.53;2.73;;;;;;;;;;6220219;23;20381;-90
2023/11/19 15:45:09;;;;;;;;;;;;;;;;;;;;;
2023/11/19 15:48:03;;;;;;;9.20;2.47;;;;;;;;;;6229297;23;20453;-88
2023/11/19 15:50:50;;;;;;;8.33;2.63;;;;;;;;;;6214498;23;20411;-86
2023/11/19 15:53:21;;;;;;;5.60;2.03;;;;;;;;;;6209645;23;20428;-87
2023/11/19 15:56:06;;;;;;;12.40;4.27;;;;;;;;;;6215437;23;20417;-85
2023/11/19 15:58:43;;;;;;;8.57;2.70;;;;;;;;;;6223158;23;20547;-87
2023/11/19 16:01:24;;;;;;;9.40;2.73;;;;;;;;;;6224699;23;20473;-86
2023/11/19 16:06:59;;;;;;;6.33;1.87;;;;;;;;;;6223126;23;20452;-88
2023/11/19 16:09:55;;;;;;;5.90;1.80;;;;;;;;;;6220590;23;20409;-85
2023/11/19 16:12:39;;;;;;;5.20;1.67;;;;;;;;;;6222941;23;20421;-88
2023/11/19 16:15:20;;;;;;;11.30;2.10;;;;;;;;;;6220834;23;20436;-87
2023/11/19 16:18:18;;;;;;;8.63;2.37;;;;;;;;;;6168059;23;20485;-85
2023/11/19 16:20:54;;;;;;;5.27;2.63;;;;;;;;;;6170782;23;20416;-86
2023/11/19 16:23:32;;;;;;;7.00;1.83;;;;;;;;;;6168898;23;20748;-84
2023/11/19 16:26:11;;;;;;;7.53;2.40;;;;;;;;;;6163525;23;20410;-87
2023/11/19 16:28:44;;;;;;;13.30;2.67;;;;;;;;;;6164110;23;20457;-86
2023/11/19 16:31:17;;;;;;;6.37;2.83;;;;;;;;;;6187077;23;20402;-86
2023/11/19 16:33:59;;;;;;;6.23;1.87;;;;;;;;;;6168266;23;21001;-87
2023/11/19 16:36:27;;;;;;;8.87;2.03;;;;;;;;;;6190567;23;20642;-88
2023/11/19 16:39:03;;;;;;;6.67;2.10;;;;;;;;;;6227436;23;20397;-86
2023/11/19 16:41:38;;;;;;;8.07;2.40;;;;;;;;;;6230300;23;20377;-84
2023/11/19 16:44:20;;;;;;;6.07;2.07;;;;;;;;;;6227766;23;20757;-89
2023/11/19 16:47:02;;;;;;;5.57;2.30;;;;;;;;;;6219516;23;20436;-86
2023/11/19 16:49:42;;;;;;;10.33;2.97;;;;;;;;;;6220004;23;20516;-87
2023/11/19 16:52:25;;;;;;;9.27;2.10;;;;;;;;;;6223193;23;20405;-85
2023/11/19 16:55:12;;;;;;;7.63;2.43;;;;;;;;;;6218986;23;20480;-85
2023/11/19 16:57:43;;;;;;;14.30;3.00;;;;;;;;;;6219749;23;20591;-87
2023/11/19 17:00:25;;;;;;;9.00;2.83;;;;;;;;;;6219194;23;20423;-85
2023/11/19 17:03:09;;;;;;;9.57;3.57;;;;;;;;;;6216500;23;20827;-86
2023/11/19 17:05:50;;;;;;;9.83;3.10;;;;;;;;;;6217164;23;20874;-86
2023/11/19 17:08:36;;;;;;;;;;;;;;;;;;;;;
2023/11/19 17:11:35;;;;;;;4.73;2.80;;;;;;;;;;6220040;23;20389;-86
2023/11/19 17:14:05;;;;;;;5.93;2.00;;;;;;;;;;6217732;23;20413;-85
2023/11/19 17:16:53;;;;;;;8.70;2.77;;;;;;;;;;6215153;23;20488;-86
2023/11/19 17:19:27;;;;;;;7.00;2.20;;;;;;;;;;6225798;23;20416;-85
2023/11/19 17:22:01;;;;;;;9.93;2.00;;;;;;;;;;6218764;23;20428;-86
2023/11/19 17:24:39;;;;;;;9.30;2.70;;;;;;;;;;6221012;23;20420;-84
2023/11/19 17:27:12;;;;;;;10.80;2.50;;;;;;;;;;6223819;23;20456;-87
2023/11/19 17:29:51;;;;;;;6.80;3.20;;;;;;;;;;6223578;23;20424;-84
2023/11/19 17:33:20;;;;;;;5.97;2.10;;;;;;;;;;6215417;23;20392;-87
2023/11/19 17:36:21;;;;;;;7.23;3.20;;;;;;;;;;6234633;23;20388;-87
2023/11/19 17:42:03;;;;;;;8.40;2.70;;;;;;;;;;6217820;23;20465;-86
2023/11/19 17:44:36;;;;;;;5.83;2.37;;;;;;;;;;6224585;23;20409;-87
2023/11/19 17:47:13;;;;;;;7.97;2.50;;;;;;;;;;6226349;23;20448;-89
2023/11/19 17:49:51;;;;;;;10.80;2.87;;;;;;;;;;6226265;23;20405;-86
2023/11/19 17:52:48;;;;;;;8.87;2.90;;;;;;;;;;6228404;23;20462;-86
2023/11/19 17:58:57;;;;;;;6.80;2.07;;;;;;;;;;6223661;22;20805;-85
2023/11/19 18:05:43;;;;;;;;;;;;;;;;;;;;;
2023/11/19 18:08:37;;;;;;;8.70;1.80;;;;;;;;;;6223070;23;21122;-86
2023/11/19 18:11:13;;;;;;;7.07;2.47;;;;;;;;;;6221059;23;20412;-86
2023/11/19 18:14:05;;;;;;;12.17;2.30;;;;;;;;;;6221125;23;20416;-87
2023/11/19 18:16:40;;;;;;;8.60;2.37;;;;;;;;;;6222172;23;20937;-89
2023/11/19 18:19:18;;;;;;;5.23;2.50;;;;;;;;;;6225168;23;20409;-87
2023/11/19 18:22:05;;;;;;;10.27;3.00;;;;;;;;;;6220497;23;20401;-86
2023/11/19 18:25:03;;;;;;;13.30;3.03;;;;;;;;;;6220302;23;21235;-85
2023/11/19 18:28:05;;;;;;;10.00;5.40;;;;;;;;;;6218754;23;20448;-86
2023/11/19 18:30:34;;;;;;;10.17;2.83;;;;;;;;;;6220981;23;20476;-85
2023/11/19 18:33:06;;;;;;;14.83;2.53;;;;;;;;;;6222683;23;20428;-86
2023/11/19 18:35:59;;;;;;;8.03;2.50;;;;;;;;;;6226769;23;20409;-86
2023/11/19 18:38:37;;;;;;;9.97;2.30;;;;;;;;;;6210980;23;20441;-86
2023/11/19 18:41:09;;;;;;;7.20;2.00;;;;;;;;;;6226410;23;20458;-86
2023/11/19 18:43:46;;;;;;;7.77;2.20;;;;;;;;;;6233511;22;20393;-86
2023/11/19 18:46:32;;;;;;;9.60;2.40;;;;;;;;;;6197799;22;20456;-87
2023/11/19 18:49:10;;;;;;;6.73;1.83;;;;;;;;;;6208052;23;20577;-89
2023/11/19 18:54:53;;;;;;;9.00;2.40;;;;;;;;;;6195456;23;20394;-87
2023/11/19 18:57:41;;;;;;;8.27;3.17;;;;;;;;;;6184170;23;20418;-87
2023/11/19 19:00:20;;;;;;;6.03;1.87;;;;;;;;;;6173541;23;20402;-85
2023/11/19 19:02:50;;;;;;;3.50;1.50;;;;;;;;;;6175988;23;20402;-87
2023/11/19 19:05:25;;;;;;;7.90;2.20;;;;;;;;;;6176833;23;20406;-85
2023/11/19 19:07:57;;;;;;;2.97;1.23;;;;;;;;;;6194190;23;20461;-87
2023/11/19 19:10:43;;;;;;;8.00;2.53;;;;;;;;;;6201784;23;20397;-86
2023/11/19 19:13:17;;;;;;;5.27;1.93;;;;;;;;;;6176916;23;20409;-86
2023/11/19 19:15:57;;;;;;;11.10;1.87;;;;;;;;;;6180025;23;20445;-87
2023/11/19 19:18:49;;;;;;;5.97;2.30;;;;;;;;;;6178847;23;20438;-87
2023/11/19 19:21:39;;;;;;;3.70;1.27;;;;;;;;;;6204470;23;20408;-86